createdAt,value
2022-09-09T00:00:15.501Z,97960.50
2022-09-09T00:03:14.617Z,97971.53
2022-09-09T00:06:15.597Z,97962.69
2022-09-09T00:09:15.712Z,97959.72
2022-09-09T00:12:14.169Z,97960.25
2022-09-09T00:15:15.043Z,97963.28
2022-09-09T00:18:18.180Z,97951.97
2022-09-09T00:21:13.714Z,97953.16
2022-09-09T00:24:15.077Z,97966.00
2022-09-09T00:27:13.415Z,97962.69
2022-09-09T00:30:20.776Z,97961.19
2022-09-09T00:33:16.616Z,97960.72
2022-09-09T00:36:16.898Z,97962.56
2022-09-09T00:39:12.427Z,97958.41
2022-09-09T00:42:16.800Z,97952.41
2022-09-09T00:45:31.040Z,97951.78
2022-09-09T00:48:25.255Z,97956.09
2022-09-09T00:51:23.160Z,97955.44
2022-09-09T00:54:37.935Z,97957.47
2022-09-09T00:57:32.988Z,97961.78
2022-09-09T01:00:26.693Z,97954.97
2022-09-09T01:03:32.474Z,97959.81
2022-09-09T01:06:31.981Z,97945.47
2022-09-09T01:09:32.767Z,97952.84
2022-09-09T01:12:36.528Z,97956.47
2022-09-09T01:15:31.752Z,97954.84
2022-09-09T01:18:26.192Z,97963.84
2022-09-09T01:21:35.515Z,97960.50
2022-09-09T01:24:39.358Z,97962.53
2022-09-09T01:27:31.139Z,97970.22
2022-09-09T01:30:23.095Z,97966.88
2022-09-09T01:33:22.241Z,97959.06
2022-09-09T01:36:21.667Z,97967.06
2022-09-09T01:39:12.388Z,97966.59
2022-09-09T01:42:02.488Z,97970.28
2022-09-09T01:44:55.845Z,97962.75
2022-09-09T01:47:47.662Z,97963.25
2022-09-09T01:50:38.337Z,97968.75
2022-09-09T01:53:28.189Z,97971.88
2022-09-09T01:56:38.769Z,97965.91
2022-09-09T01:59:56.784Z,97959.56
2022-09-09T02:03:03.087Z,97967.38
2022-09-09T02:06:04.134Z,97952.41
2022-09-09T02:08:58.588Z,97952.22
2022-09-09T02:11:57.488Z,97942.88
2022-09-09T02:14:57.943Z,97955.19
2022-09-09T02:17:54.270Z,97954.84
2022-09-09T02:20:46.472Z,97958.16
2022-09-09T02:23:38.864Z,97956.13
2022-09-09T02:26:30.331Z,97955.84
2022-09-09T02:29:28.190Z,97957.31
2022-09-09T02:32:25.314Z,97957.69
2022-09-09T02:35:20.153Z,97950.81
2022-09-09T02:38:15.888Z,97961.81
2022-09-09T02:41:05.542Z,97958.63
2022-09-09T02:43:55.083Z,97966.50
2022-09-09T02:47:26.759Z,97963.50
2022-09-09T02:50:25.669Z,97957.81
2022-09-09T02:53:22.281Z,97958.81
2022-09-09T02:56:22.756Z,97959.13
2022-09-09T02:59:13.489Z,97950.78
2022-09-09T03:02:04.662Z,97953.09
2022-09-09T03:04:55.192Z,97962.56
2022-09-09T03:07:49.176Z,97955.09
2022-09-09T03:10:39.268Z,97953.09
2022-09-09T03:13:30.633Z,97956.69
2022-09-09T03:16:21.011Z,97952.72
2022-09-09T03:19:10.752Z,97946.56
2022-09-09T03:22:01.281Z,97955.50
2022-09-09T03:24:52.984Z,97965.53
2022-09-09T03:27:42.375Z,97949.38
2022-09-09T03:30:31.907Z,97949.72
2022-09-09T03:33:21.723Z,97950.16
2022-09-09T03:36:11.731Z,97958.16
2022-09-09T03:39:02.006Z,97960.31
2022-09-09T03:41:53.078Z,97960.66
2022-09-09T03:44:43.054Z,97948.00
2022-09-09T03:47:32.685Z,97959.16
2022-09-09T03:50:22.067Z,97964.13
2022-09-09T03:53:11.823Z,97971.31
2022-09-09T03:56:02.859Z,97959.16
2022-09-09T03:58:55.257Z,97956.31
2022-09-09T04:01:46.683Z,97951.78
2022-09-09T04:04:36.477Z,97949.59
2022-09-09T04:07:26.376Z,97956.53
2022-09-09T04:10:19.221Z,97943.38
2022-09-09T04:13:09.967Z,97952.53
2022-09-09T04:16:03.410Z,97961.56
2022-09-09T04:18:54.361Z,97954.84
2022-09-09T04:21:44.908Z,97952.84
2022-09-09T04:24:36.132Z,97959.31
2022-09-09T04:27:26.619Z,97954.16
2022-09-09T04:30:17.632Z,97968.16
2022-09-09T04:33:10.012Z,97964.09
2022-09-09T04:35:59.747Z,97956.44
2022-09-09T04:38:50.443Z,97961.41
2022-09-09T04:41:41.312Z,97961.06
2022-09-09T04:44:31.243Z,97962.72
2022-09-09T04:47:21.089Z,97958.75
2022-09-09T04:50:13.305Z,97960.41
2022-09-09T04:53:03.829Z,97968.09
2022-09-09T04:55:54.073Z,97965.91
2022-09-09T04:58:45.234Z,97972.53
2022-09-09T05:01:35.189Z,97972.19
2022-09-09T05:04:25.408Z,97976.31
2022-09-09T05:07:16.982Z,97981.66
2022-09-09T05:10:07.289Z,97985.34
2022-09-09T05:12:57.471Z,97992.06
2022-09-09T05:15:55.406Z,97993.53
2022-09-09T05:18:47.213Z,97997.66
2022-09-09T05:21:37.080Z,98004.34
2022-09-09T05:24:28.038Z,97991.44
2022-09-09T05:27:17.781Z,97994.94
2022-09-09T05:30:10.400Z,97997.91
2022-09-09T05:33:00.507Z,98000.28
2022-09-09T05:35:50.253Z,97992.19
2022-09-09T05:38:40.441Z,97991.84
2022-09-09T05:41:34.261Z,98004.47
2022-09-09T05:44:24.993Z,98001.06
2022-09-09T05:47:16.381Z,98000.53
2022-09-09T05:50:07.891Z,98009.03
2022-09-09T05:52:58.220Z,98011.34
2022-09-09T05:55:48.639Z,98006.63
2022-09-09T05:58:40.999Z,97999.94
2022-09-09T06:01:33.255Z,97998.38
2022-09-09T06:04:26.117Z,98008.31
2022-09-09T06:07:16.021Z,98003.41
2022-09-09T06:10:07.216Z,98009.88
2022-09-09T06:12:56.958Z,98009.97
2022-09-09T06:15:54.313Z,98003.72
2022-09-09T06:18:45.119Z,97996.81
2022-09-09T06:21:38.425Z,97998.56
2022-09-09T06:24:28.283Z,97992.28
2022-09-09T06:27:18.547Z,97990.19
2022-09-09T06:30:18.473Z,97997.09
2022-09-09T06:33:11.844Z,97987.28
2022-09-09T06:36:01.773Z,97985.91
2022-09-09T06:38:51.687Z,97982.84
2022-09-09T06:41:43.627Z,97980.44
2022-09-09T06:44:35.561Z,97984.47
2022-09-09T06:47:30.409Z,97997.16
2022-09-09T06:50:23.292Z,97994.56
2022-09-09T06:53:12.701Z,97997.56
2022-09-09T06:56:06.558Z,97998.31
2022-09-09T06:58:57.815Z,97991.88
2022-09-09T07:01:50.271Z,97989.97
2022-09-09T07:04:41.861Z,97991.09
2022-09-09T07:07:35.166Z,97985.34
2022-09-09T07:10:26.260Z,97989.47
2022-09-09T07:13:16.737Z,97982.09
2022-09-09T07:16:08.969Z,97981.94
2022-09-09T07:18:59.932Z,97976.81
2022-09-09T07:21:51.500Z,97980.56
2022-09-09T07:24:43.337Z,97991.59
2022-09-09T07:27:32.975Z,97990.38
2022-09-09T07:30:27.585Z,97987.16
2022-09-09T07:33:18.310Z,97986.78
2022-09-09T07:36:13.093Z,97979.00
2022-09-09T07:39:05.120Z,97977.78
2022-09-09T07:41:56.459Z,97973.75
2022-09-09T07:44:45.971Z,97983.06
2022-09-09T07:47:36.757Z,97981.66
2022-09-09T07:50:26.774Z,97976.75
2022-09-09T07:53:16.397Z,97969.78
2022-09-09T07:56:08.165Z,97971.00
2022-09-09T07:59:02.285Z,97974.72
2022-09-09T08:01:56.109Z,97977.63
2022-09-09T08:04:46.495Z,97971.44
2022-09-09T08:07:36.632Z,97977.44
2022-09-09T08:10:26.733Z,97975.72
2022-09-09T08:13:18.944Z,97977.13
2022-09-09T08:16:18.405Z,97974.63
2022-09-09T08:19:09.456Z,97969.44
2022-09-09T08:21:59.146Z,97969.75
2022-09-09T08:24:49.437Z,97976.47
2022-09-09T08:27:39.696Z,97965.53
2022-09-09T08:30:30.091Z,97966.66
2022-09-09T08:33:21.161Z,97965.25
2022-09-09T08:36:17.782Z,97957.97
2022-09-09T08:39:10.483Z,97957.69
2022-09-09T08:42:39.153Z,97966.72
2022-09-09T08:45:39.449Z,97969.88
2022-09-09T08:48:53.502Z,97963.09
2022-09-09T08:51:43.900Z,97957.34
2022-09-09T08:54:51.745Z,97956.47
2022-09-09T08:57:42.238Z,97959.00
2022-09-09T09:00:53.836Z,97951.16
2022-09-09T09:03:59.637Z,97950.03
2022-09-09T09:07:00.519Z,97953.19
2022-09-09T09:10:03.391Z,97954.00
2022-09-09T09:12:53.378Z,97954.69
2022-09-09T09:15:46.666Z,97956.16
2022-09-09T09:18:36.589Z,97967.69
2022-09-09T09:21:38.870Z,97953.38
2022-09-09T09:24:49.034Z,97958.75
2022-09-09T09:27:48.549Z,97962.72
2022-09-09T09:30:44.633Z,97947.75
2022-09-09T09:33:47.584Z,97936.03
2022-09-09T09:36:47.240Z,97929.72
2022-09-09T09:42:55.295Z,97928.75
2022-09-09T09:46:06.951Z,97926.09
2022-09-09T09:49:06.593Z,97925.16
2022-09-09T09:52:04.142Z,97926.59
2022-09-09T09:54:55.889Z,97924.56
2022-09-09T09:57:46.117Z,97926.63
2022-09-09T10:00:36.991Z,97919.03
2022-09-09T10:03:31.412Z,97923.44
2022-09-09T10:06:32.487Z,97916.94
2022-09-09T10:09:28.970Z,97910.94
2022-09-09T10:12:43.518Z,97909.31
2022-09-09T10:15:51.464Z,97900.25
2022-09-09T10:19:01.324Z,97901.63
2022-09-09T10:22:18.452Z,97896.19
2022-09-09T10:25:31.232Z,97901.63
2022-09-09T10:28:46.195Z,97894.25
2022-09-09T10:31:52.773Z,97893.41
2022-09-09T10:34:59.435Z,97889.03
2022-09-09T10:38:16.108Z,97884.16
2022-09-09T10:41:38.646Z,97881.38
2022-09-09T10:45:01.015Z,97878.69
2022-09-09T10:48:06.319Z,97881.44
2022-09-09T10:51:10.695Z,97887.16
2022-09-09T10:54:23.250Z,97885.28
2022-09-09T10:57:29.505Z,97883.09
2022-09-09T11:00:25.179Z,97880.34
2022-09-09T11:03:24.658Z,97890.16
2022-09-09T11:06:21.373Z,97883.91
2022-09-09T11:09:25.569Z,97877.09
2022-09-09T11:12:27.863Z,97882.22
2022-09-09T11:15:28.366Z,97881.38
2022-09-09T11:18:24.385Z,97869.09
2022-09-09T11:21:25.557Z,97867.78
2022-09-09T11:24:26.945Z,97875.97
2022-09-09T11:27:26.291Z,97875.69
2022-09-09T11:30:44.565Z,97865.06
2022-09-09T11:34:00.316Z,97861.22
2022-09-09T11:37:27.371Z,97857.41
2022-09-09T11:40:26.444Z,97853.53
2022-09-09T11:43:26.013Z,97854.47
2022-09-09T11:46:18.566Z,97858.94
2022-09-09T11:49:32.517Z,97854.53
2022-09-09T11:52:27.800Z,97852.91
2022-09-09T11:55:32.116Z,97849.69
2022-09-09T11:58:25.669Z,97861.19
2022-09-09T12:01:42.625Z,97860.63
2022-09-09T12:04:42.198Z,97858.97
2022-09-09T12:07:42.901Z,97850.28
2022-09-09T12:10:39.044Z,97852.78
2022-09-09T12:13:33.347Z,97853.56
2022-09-09T12:16:36.556Z,97856.81
2022-09-09T12:19:27.232Z,97840.50
2022-09-09T12:25:57.999Z,97841.28
2022-09-09T12:29:10.944Z,97842.06
2022-09-09T12:32:09.115Z,97836.00
2022-09-09T12:35:06.279Z,97831.63
2022-09-09T12:38:00.468Z,97841.81
2022-09-09T12:40:58.646Z,97862.25
2022-09-09T12:43:48.906Z,97871.63
2022-09-09T12:46:45.879Z,97876.13
2022-09-09T12:49:42.917Z,97896.19
2022-09-09T12:52:38.445Z,97899.66
2022-09-09T12:55:34.430Z,97927.63
2022-09-09T12:58:24.572Z,97950.19
2022-09-09T13:01:26.525Z,97990.53
2022-09-09T13:04:24.493Z,97973.94
2022-09-09T13:07:17.061Z,97975.84
2022-09-09T13:10:08.258Z,97960.69
2022-09-09T13:12:59.264Z,97955.00
2022-09-09T13:15:54.666Z,97935.44
2022-09-09T13:18:44.737Z,97915.44
2022-09-09T13:21:38.195Z,97900.38
2022-09-09T13:24:34.695Z,97911.31
2022-09-09T13:27:31.771Z,97898.38
2022-09-09T13:30:25.325Z,97888.78
2022-09-09T13:33:25.432Z,97885.25
2022-09-09T13:36:15.940Z,97873.84
2022-09-09T13:39:06.735Z,97872.94
2022-09-09T13:41:55.974Z,97867.53
2022-09-09T13:44:48.622Z,97855.38
2022-09-09T13:47:38.974Z,97865.16
2022-09-09T13:50:30.796Z,97856.81
2022-09-09T13:53:19.955Z,97846.72
2022-09-09T13:56:11.219Z,97849.25
2022-09-09T13:59:00.313Z,97849.19
2022-09-09T14:01:50.246Z,97851.56
2022-09-09T14:04:42.030Z,97844.16
2022-09-09T14:07:31.225Z,97838.09
2022-09-09T14:10:20.684Z,97832.00
2022-09-09T14:13:11.599Z,97836.25
2022-09-09T14:16:00.695Z,97841.19
2022-09-09T14:18:50.348Z,97845.88
2022-09-09T14:21:39.742Z,97840.69
2022-09-09T14:24:29.157Z,97849.41
2022-09-09T14:27:19.928Z,97848.81
2022-09-09T14:30:12.179Z,97847.06
2022-09-09T14:33:01.238Z,97854.16
2022-09-09T14:35:57.126Z,97849.78
2022-09-09T14:38:46.315Z,97849.72
2022-09-09T14:41:35.513Z,97849.06
2022-09-09T14:44:25.085Z,97848.47
2022-09-09T14:47:15.557Z,97856.09
2022-09-09T14:50:06.014Z,97864.81
2022-09-09T14:52:55.032Z,97867.53
2022-09-09T14:55:44.099Z,97859.69
2022-09-09T14:58:33.580Z,97866.16
2022-09-09T15:01:23.735Z,97870.28
2022-09-09T15:04:16.044Z,97857.19
2022-09-09T15:07:05.109Z,97861.19
2022-09-09T15:09:54.209Z,97867.56
2022-09-09T15:12:43.820Z,97864.81
2022-09-09T15:15:33.000Z,97860.09
2022-09-09T15:18:25.311Z,97863.38
2022-09-09T15:21:17.955Z,97852.19
2022-09-09T15:24:09.219Z,97856.91
2022-09-09T15:26:58.610Z,97854.44
2022-09-09T15:29:47.879Z,97842.22
2022-09-09T15:32:37.003Z,97842.22
2022-09-09T15:35:26.159Z,97845.50
2022-09-09T15:38:18.136Z,97839.28
2022-09-09T15:41:07.443Z,97840.91
2022-09-09T15:43:58.683Z,97841.50
2022-09-09T15:46:51.814Z,97834.81
2022-09-09T15:49:41.133Z,97834.22
2022-09-09T15:52:30.200Z,97834.00
2022-09-09T15:55:21.141Z,97834.00
2022-09-09T15:58:10.221Z,97828.59
2022-09-09T16:01:05.273Z,97830.91
2022-09-09T16:03:54.914Z,97825.63
2022-09-09T16:06:44.000Z,97824.22
2022-09-09T16:09:34.715Z,97832.91
2022-09-09T16:12:25.427Z,97835.38
2022-09-09T16:15:41.167Z,97839.28
2022-09-09T16:18:37.727Z,97838.91
2022-09-09T16:21:30.082Z,97839.97
2022-09-09T16:24:21.901Z,97835.97
2022-09-09T16:27:12.392Z,97841.28
2022-09-09T16:30:02.943Z,97856.81
2022-09-09T16:32:52.803Z,97856.53
2022-09-09T16:35:52.121Z,97853.47
2022-09-09T16:38:41.470Z,97860.53
2022-09-09T16:41:32.267Z,97858.03
2022-09-09T16:44:21.554Z,97874.81
2022-09-09T16:47:11.914Z,97883.69
2022-09-09T16:50:01.632Z,97885.75
2022-09-09T16:52:50.678Z,97900.69
2022-09-09T16:55:43.467Z,97904.34
2022-09-09T16:58:32.685Z,97914.44
2022-09-09T17:01:21.838Z,97911.50
2022-09-09T17:04:16.432Z,97917.78
2022-09-09T17:07:05.696Z,97912.06
2022-09-09T17:09:55.029Z,97914.22
2022-09-09T17:12:44.167Z,97915.78
2022-09-09T17:15:33.473Z,97918.31
2022-09-09T17:18:23.550Z,97923.34
2022-09-09T17:21:16.998Z,97933.56
2022-09-09T17:24:06.452Z,97932.78
2022-09-09T17:26:56.224Z,97927.47
2022-09-09T17:29:45.581Z,97934.50
2022-09-09T17:32:36.586Z,97938.31
2022-09-09T17:35:25.679Z,97935.88
2022-09-09T17:38:16.779Z,97936.72
2022-09-09T17:41:08.398Z,97928.94
2022-09-09T17:43:59.430Z,97924.41
2022-09-09T17:46:56.860Z,97937.31
2022-09-09T17:49:45.951Z,97931.53
2022-09-09T17:52:36.333Z,97951.63
2022-09-09T17:55:26.918Z,97947.31
2022-09-09T17:58:16.737Z,97951.28
2022-09-09T18:01:08.092Z,97962.06
2022-09-09T18:03:58.789Z,97957.53
2022-09-09T18:06:54.149Z,97965.00
2022-09-09T18:09:50.085Z,97961.50
2022-09-09T18:12:41.608Z,97965.84
2022-09-09T18:15:48.531Z,97966.47
2022-09-09T18:18:39.479Z,97974.53
2022-09-09T18:21:37.321Z,97983.44
2022-09-09T18:24:26.791Z,97989.22
2022-09-09T18:27:17.591Z,97990.06
2022-09-09T18:30:11.332Z,97991.50
2022-09-09T18:33:00.543Z,97998.13
2022-09-09T18:36:06.498Z,98006.16
2022-09-09T18:38:59.402Z,98016.06
2022-09-09T18:42:01.618Z,98015.25
2022-09-09T18:44:50.809Z,98008.00
2022-09-09T18:47:42.432Z,98004.50
2022-09-09T18:50:31.522Z,98011.91
2022-09-09T18:53:23.178Z,98013.53
2022-09-09T18:56:17.768Z,98021.81
2022-09-09T18:59:11.745Z,98020.09
2022-09-09T19:02:01.328Z,98018.00
2022-09-09T19:04:52.629Z,98019.59
2022-09-09T19:07:42.530Z,98020.84
2022-09-09T19:10:39.712Z,98026.56
2022-09-09T19:13:29.090Z,98031.53
2022-09-09T19:16:19.471Z,98042.56
2022-09-09T19:19:12.917Z,98046.03
2022-09-09T19:22:12.077Z,98045.38
2022-09-09T19:25:03.550Z,98047.41
2022-09-09T19:27:53.820Z,98048.56
2022-09-09T19:30:50.567Z,98053.13
2022-09-09T19:33:50.107Z,98061.75
2022-09-09T19:36:39.558Z,98072.03
2022-09-09T19:39:34.557Z,98069.94
2022-09-09T19:42:23.838Z,98071.81
2022-09-09T19:45:13.387Z,98083.50
2022-09-09T19:48:02.907Z,98073.56
2022-09-09T19:50:57.951Z,98092.06
2022-09-09T19:53:56.936Z,98091.19
2022-09-09T19:57:30.341Z,98086.16
2022-09-09T20:00:20.337Z,98093.53
2022-09-09T20:03:19.215Z,98087.34
2022-09-09T20:06:14.056Z,98097.19
2022-09-09T20:09:05.397Z,98089.72
2022-09-09T20:11:56.606Z,98093.81
2022-09-09T20:14:46.748Z,98091.84
2022-09-09T20:17:36.070Z,98087.06
2022-09-09T20:20:25.207Z,98092.16
2022-09-09T20:23:14.345Z,98093.38
2022-09-09T20:26:06.605Z,98102.88
2022-09-09T20:28:57.944Z,98099.75
2022-09-09T20:31:49.133Z,98107.31
2022-09-09T20:34:38.182Z,98114.09
2022-09-09T20:37:27.292Z,98112.81
2022-09-09T20:40:16.492Z,98110.41
2022-09-09T20:43:06.562Z,98111.16
2022-09-09T20:45:57.970Z,98109.06
2022-09-09T20:48:48.235Z,98107.16
2022-09-09T20:51:38.808Z,98103.81
2022-09-09T20:54:31.218Z,98105.84
2022-09-09T20:57:23.102Z,98105.41
2022-09-09T21:00:14.793Z,98097.56
2022-09-09T21:03:05.817Z,98095.06
2022-09-09T21:05:56.194Z,98087.59
2022-09-09T21:08:46.528Z,98090.84
2022-09-09T21:11:41.245Z,98085.03
2022-09-09T21:14:32.749Z,98086.59
2022-09-09T21:17:25.224Z,98093.53
2022-09-09T21:20:16.779Z,98083.19
2022-09-09T21:23:10.316Z,98077.56
2022-09-09T21:26:00.316Z,98088.63
2022-09-09T21:28:53.769Z,98089.66
2022-09-09T21:31:50.269Z,98090.03
2022-09-09T21:34:49.965Z,98104.78
2022-09-09T21:37:43.162Z,98099.81
2022-09-09T21:40:32.268Z,98102.00
2022-09-09T21:43:26.180Z,98112.84
2022-09-09T21:46:18.563Z,98111.19
2022-09-09T21:49:09.936Z,98113.38
2022-09-09T21:52:01.371Z,98116.06
2022-09-09T21:54:53.427Z,98120.13
2022-09-09T21:57:43.004Z,98123.81
2022-09-09T22:00:34.163Z,98126.50
2022-09-09T22:03:24.247Z,98127.34
2022-09-09T22:09:39.760Z,98133.66
2022-09-09T22:12:33.218Z,98132.56
2022-09-09T22:15:26.235Z,98136.44
2022-09-09T22:18:19.355Z,98137.25
2022-09-09T22:21:17.864Z,98139.00
2022-09-09T22:24:07.799Z,98130.97
2022-09-09T22:26:57.022Z,98139.53
2022-09-09T22:29:47.613Z,98137.22
2022-09-09T22:32:36.883Z,98144.28
2022-09-09T22:35:26.469Z,98155.34
2022-09-09T22:38:15.880Z,98158.53
2022-09-09T22:41:07.538Z,98144.75
2022-09-09T22:43:56.880Z,98147.75
2022-09-09T22:46:47.696Z,98143.78
2022-09-09T22:49:38.358Z,98146.44
2022-09-09T22:52:28.784Z,98142.97
2022-09-09T22:55:18.545Z,98145.97
2022-09-09T22:58:07.638Z,98136.31
2022-09-09T23:00:58.968Z,98143.13
2022-09-09T23:03:50.803Z,98138.81
2022-09-09T23:06:43.310Z,98140.28
2022-09-09T23:09:32.628Z,98144.78
2022-09-09T23:12:22.098Z,98152.63
2022-09-09T23:15:12.580Z,98159.16
2022-09-09T23:18:01.829Z,98157.50
2022-09-09T23:21:00.615Z,98155.81
2022-09-09T23:23:53.737Z,98148.47
2022-09-09T23:26:44.749Z,98156.66
2022-09-09T23:29:33.865Z,98157.50
2022-09-09T23:32:24.831Z,98150.47
2022-09-09T23:35:14.172Z,98148.84
2022-09-09T23:38:05.077Z,98142.03
2022-09-09T23:40:54.214Z,98141.47
2022-09-09T23:43:44.994Z,98142.19
2022-09-09T23:46:35.423Z,98141.00
2022-09-09T23:49:26.814Z,98134.00
2022-09-09T23:52:16.606Z,98138.50
2022-09-09T23:55:15.673Z,98136.84
2022-09-09T23:58:05.166Z,98147.53
